createdAt,value
2017-10-28T00:00:07.587Z,947.60
2017-10-28T00:01:07.586Z,947.57
2017-10-28T00:02:07.584Z,947.57
2017-10-28T00:03:07.581Z,947.53
2017-10-28T00:04:07.578Z,947.50
2017-10-28T00:05:07.577Z,947.53
2017-10-28T00:06:07.574Z,947.58
2017-10-28T00:07:07.572Z,947.67
2017-10-28T00:08:07.568Z,947.73
2017-10-28T00:09:07.566Z,947.81
2017-10-28T00:10:07.563Z,947.86
2017-10-28T00:11:07.561Z,947.83
2017-10-28T00:12:07.559Z,947.72
2017-10-28T00:13:07.555Z,947.68
2017-10-28T00:14:07.609Z,947.65
2017-10-28T00:15:07.551Z,947.60
2017-10-28T00:16:07.547Z,947.61
2017-10-28T00:17:07.544Z,947.61
2017-10-28T00:18:07.543Z,947.70
2017-10-28T00:19:07.539Z,947.65
2017-10-28T00:20:07.538Z,947.59
2017-10-28T00:21:07.534Z,947.59
2017-10-28T00:22:07.533Z,947.53
2017-10-28T00:23:07.529Z,947.53
2017-10-28T00:24:07.525Z,947.57
2017-10-28T00:25:07.523Z,947.56
2017-10-28T00:26:07.521Z,947.56
2017-10-28T00:27:07.518Z,947.60
2017-10-28T00:28:07.515Z,947.63
2017-10-28T00:29:07.511Z,947.69
2017-10-28T00:30:07.510Z,947.75
2017-10-28T00:31:07.507Z,947.79
2017-10-28T00:32:07.504Z,947.80
2017-10-28T00:33:07.501Z,947.85
2017-10-28T00:34:07.500Z,947.83
2017-10-28T00:35:07.497Z,947.80
2017-10-28T00:36:07.492Z,947.78
2017-10-28T00:37:07.492Z,947.73
2017-10-28T00:38:07.489Z,947.70
2017-10-28T00:39:07.485Z,947.61
2017-10-28T00:40:07.483Z,947.52
2017-10-28T00:41:07.482Z,947.49
2017-10-28T00:42:07.476Z,947.48
2017-10-28T00:43:07.487Z,947.52
2017-10-28T00:44:07.469Z,947.52
2017-10-28T00:45:07.468Z,947.63
2017-10-28T00:46:07.464Z,947.67
2017-10-28T00:47:07.460Z,947.64
2017-10-28T00:48:07.457Z,947.62
2017-10-28T00:49:07.456Z,947.63
2017-10-28T00:50:07.452Z,947.66
2017-10-28T00:51:07.450Z,947.68
2017-10-28T00:52:07.454Z,947.67
2017-10-28T00:53:07.442Z,947.65
2017-10-28T00:54:07.440Z,947.61
2017-10-28T00:55:07.439Z,947.65
2017-10-28T00:56:07.435Z,947.68
2017-10-28T00:57:07.433Z,947.72
2017-10-28T00:58:07.429Z,947.74
2017-10-28T00:59:07.429Z,947.70
2017-10-28T01:00:07.423Z,947.70
2017-10-28T01:01:07.422Z,947.65
2017-10-28T01:02:07.417Z,947.56
2017-10-28T01:03:07.419Z,947.57
2017-10-28T01:04:07.415Z,947.61
2017-10-28T01:05:07.409Z,947.61
2017-10-28T01:06:07.408Z,947.60
2017-10-28T01:07:07.404Z,947.60
2017-10-28T01:08:07.401Z,947.65
2017-10-28T01:09:07.396Z,947.62
2017-10-28T01:10:07.395Z,947.64
2017-10-28T01:11:07.391Z,947.61
2017-10-28T01:12:07.387Z,947.57
2017-10-28T01:13:07.384Z,947.57
2017-10-28T01:14:07.381Z,947.59
2017-10-28T01:15:07.381Z,947.58
2017-10-28T01:16:07.377Z,947.60
2017-10-28T01:17:07.381Z,947.55
2017-10-28T01:18:07.372Z,947.53
2017-10-28T01:19:07.369Z,947.52
2017-10-28T01:20:07.365Z,947.56
2017-10-28T01:21:07.363Z,947.56
2017-10-28T01:22:07.361Z,947.47
2017-10-28T01:23:07.357Z,947.47
2017-10-28T01:24:07.354Z,947.45
2017-10-28T01:25:07.351Z,947.41
2017-10-28T01:26:07.351Z,947.39
2017-10-28T01:27:07.346Z,947.43
2017-10-28T01:28:07.343Z,947.43
2017-10-28T01:29:07.341Z,947.35
2017-10-28T01:30:07.340Z,947.37
2017-10-28T01:31:07.337Z,947.34
2017-10-28T01:32:07.332Z,947.34
2017-10-28T01:33:07.330Z,947.34
2017-10-28T01:34:07.327Z,947.29
2017-10-28T01:35:07.327Z,947.34
2017-10-28T01:36:07.335Z,947.34
2017-10-28T01:37:07.320Z,947.39
2017-10-28T01:38:07.317Z,947.36
2017-10-28T01:39:07.315Z,947.40
2017-10-28T01:40:07.311Z,947.43
2017-10-28T01:41:07.322Z,947.38
2017-10-28T01:42:07.306Z,947.32
2017-10-28T01:43:07.304Z,947.28
2017-10-28T01:44:07.300Z,947.30
2017-10-28T01:45:07.298Z,947.24
2017-10-28T01:46:07.296Z,947.25
2017-10-28T01:47:07.296Z,947.23
2017-10-28T01:48:07.290Z,947.21
2017-10-28T01:49:07.288Z,947.14
2017-10-28T01:50:07.285Z,947.11
2017-10-28T01:51:07.283Z,947.07
2017-10-28T01:52:07.279Z,947.02
2017-10-28T01:53:07.295Z,947.03
2017-10-28T01:54:07.276Z,947.02
2017-10-28T01:55:07.274Z,947.02
2017-10-28T01:56:07.269Z,946.97
2017-10-28T01:57:07.267Z,946.99
2017-10-28T01:58:07.264Z,946.99
2017-10-28T01:59:07.263Z,946.93
2017-10-28T02:00:07.259Z,946.94
2017-10-28T02:01:07.258Z,946.91
2017-10-28T02:02:07.259Z,946.93
2017-10-28T02:03:07.252Z,946.91
2017-10-28T02:04:07.253Z,946.89
2017-10-28T02:05:07.247Z,946.91
2017-10-28T02:06:07.244Z,946.87
2017-10-28T02:07:07.245Z,946.88
2017-10-28T02:08:07.239Z,946.86
2017-10-28T02:09:07.237Z,946.84
2017-10-28T02:10:07.235Z,946.77
2017-10-28T02:11:07.233Z,946.73
2017-10-28T02:12:07.228Z,946.65
2017-10-28T02:13:07.226Z,946.67
2017-10-28T02:14:07.225Z,946.66
2017-10-28T02:15:07.222Z,946.62
2017-10-28T02:16:07.219Z,946.62
2017-10-28T02:17:07.216Z,946.65
2017-10-28T02:18:07.215Z,946.61
2017-10-28T02:19:07.214Z,946.65
2017-10-28T02:20:07.209Z,946.67
2017-10-28T02:21:07.206Z,946.67
2017-10-28T02:22:07.207Z,946.66
2017-10-28T02:23:07.202Z,946.64
2017-10-28T02:24:07.211Z,946.71
2017-10-28T02:25:07.196Z,946.68
2017-10-28T02:26:07.242Z,946.66
2017-10-28T02:27:07.191Z,946.61
2017-10-28T02:28:07.188Z,946.60
2017-10-28T02:29:07.185Z,946.59
2017-10-28T02:30:07.183Z,946.57
2017-10-28T02:31:07.180Z,946.57
2017-10-28T02:32:07.226Z,946.52
2017-10-28T02:33:07.174Z,946.52
2017-10-28T02:34:07.172Z,946.50
2017-10-28T02:35:07.169Z,946.47
2017-10-28T02:36:07.165Z,946.42
2017-10-28T02:37:07.164Z,946.37
2017-10-28T02:38:07.161Z,946.39
2017-10-28T02:39:07.159Z,946.37
2017-10-28T02:40:07.156Z,946.39
2017-10-28T02:41:07.152Z,946.35
2017-10-28T02:42:07.149Z,946.30
2017-10-28T02:43:07.148Z,946.25
2017-10-28T02:44:07.144Z,946.17
2017-10-28T02:45:07.152Z,946.21
2017-10-28T02:46:07.139Z,946.18
2017-10-28T02:47:07.139Z,946.17
2017-10-28T02:48:07.134Z,946.17
2017-10-28T02:49:07.132Z,946.16
2017-10-28T02:50:07.129Z,946.19
2017-10-28T02:51:07.128Z,946.21
2017-10-28T02:52:07.123Z,946.12
2017-10-28T02:53:07.121Z,946.13
2017-10-28T02:54:07.122Z,946.13
2017-10-28T02:55:07.117Z,946.13
2017-10-28T02:56:07.122Z,946.15
2017-10-28T02:57:07.112Z,946.10
2017-10-28T02:58:07.109Z,946.10
2017-10-28T02:59:07.110Z,946.09
2017-10-28T03:00:07.105Z,946.07
2017-10-28T03:01:07.103Z,946.08
2017-10-28T03:02:07.399Z,946.07
2017-10-28T03:03:07.096Z,946.08
2017-10-28T03:04:07.095Z,946.07
2017-10-28T03:05:07.091Z,946.09
2017-10-28T03:06:07.090Z,946.08
2017-10-28T03:07:07.086Z,946.07
2017-10-28T03:08:07.082Z,946.13
2017-10-28T03:09:07.080Z,946.09
2017-10-28T03:10:07.078Z,946.12
2017-10-28T03:11:07.077Z,946.21
2017-10-28T03:12:07.072Z,946.22
2017-10-28T03:13:07.069Z,946.22
2017-10-28T03:14:07.067Z,946.26
2017-10-28T03:15:07.067Z,946.29
2017-10-28T03:16:07.061Z,946.32
2017-10-28T03:17:07.058Z,946.34
2017-10-28T03:18:07.056Z,946.36
2017-10-28T03:19:07.052Z,946.43
2017-10-28T03:20:07.048Z,946.42
2017-10-28T03:21:07.047Z,946.41
2017-10-28T03:22:07.044Z,946.47
2017-10-28T03:23:07.040Z,946.44
2017-10-28T03:24:07.038Z,946.48
2017-10-28T03:25:07.036Z,946.44
2017-10-28T03:26:07.035Z,946.44
2017-10-28T03:27:07.030Z,946.44
2017-10-28T03:28:07.028Z,946.45
2017-10-28T03:29:07.025Z,946.43
2017-10-28T03:30:07.026Z,946.40
2017-10-28T03:31:07.073Z,946.43
2017-10-28T03:32:07.016Z,946.37
2017-10-28T03:33:07.012Z,946.40
2017-10-28T03:34:07.062Z,946.41
2017-10-28T03:35:07.009Z,946.40
2017-10-28T03:36:07.006Z,946.34
2017-10-28T03:37:07.002Z,946.30
2017-10-28T03:38:07.000Z,946.31
2017-10-28T03:39:06.997Z,946.33
2017-10-28T03:40:06.994Z,946.33
2017-10-28T03:41:06.991Z,946.31
2017-10-28T03:42:06.993Z,946.27
2017-10-28T03:43:06.987Z,946.27
2017-10-28T03:44:06.983Z,946.28
2017-10-28T03:45:06.981Z,946.28
2017-10-28T03:46:06.984Z,946.30
2017-10-28T03:47:06.975Z,946.32
2017-10-28T03:48:06.972Z,946.31
2017-10-28T03:49:06.971Z,946.32
2017-10-28T03:50:06.972Z,946.29
2017-10-28T03:51:06.965Z,946.28
2017-10-28T03:52:06.969Z,946.25
2017-10-28T03:53:07.010Z,946.24
2017-10-28T03:54:06.962Z,946.26
2017-10-28T03:55:06.963Z,946.26
2017-10-28T03:56:06.957Z,946.25
2017-10-28T03:57:06.949Z,946.19
2017-10-28T03:58:06.948Z,946.19
2017-10-28T03:59:06.947Z,946.14
2017-10-28T04:00:06.942Z,946.15
2017-10-28T04:01:06.940Z,946.17
2017-10-28T04:02:06.938Z,946.19
2017-10-28T04:03:06.985Z,946.21
2017-10-28T04:04:06.933Z,946.29
2017-10-28T04:05:06.932Z,946.30
2017-10-28T04:06:06.934Z,946.19
2017-10-28T04:07:06.926Z,946.21
2017-10-28T04:08:06.927Z,946.18
2017-10-28T04:09:06.920Z,946.18
2017-10-28T04:10:06.917Z,946.16
2017-10-28T04:11:06.921Z,946.17
2017-10-28T04:12:06.911Z,946.19
2017-10-28T04:13:06.909Z,946.16
2017-10-28T04:14:06.908Z,946.20
2017-10-28T04:15:06.905Z,946.12
2017-10-28T04:16:06.901Z,946.11
2017-10-28T04:17:06.900Z,946.07
2017-10-28T04:18:06.897Z,946.02
2017-10-28T04:19:06.894Z,946.00
2017-10-28T04:20:06.892Z,945.99
2017-10-28T04:21:06.890Z,945.90
2017-10-28T04:22:06.886Z,945.84
2017-10-28T04:23:06.884Z,945.82
2017-10-28T04:24:06.880Z,945.80
2017-10-28T04:25:06.877Z,945.83
2017-10-28T04:26:06.877Z,945.78
2017-10-28T04:27:06.873Z,945.80
2017-10-28T04:28:06.871Z,945.85
2017-10-28T04:29:06.867Z,945.84
2017-10-28T04:30:06.864Z,945.94
2017-10-28T04:31:06.862Z,945.91
2017-10-28T04:32:06.858Z,945.97
2017-10-28T04:33:06.856Z,945.94
2017-10-28T04:34:06.855Z,945.93
2017-10-28T04:35:06.852Z,945.94
2017-10-28T04:36:06.848Z,945.91
2017-10-28T04:37:06.846Z,945.83
2017-10-28T04:38:06.843Z,945.89
2017-10-28T04:39:06.840Z,945.90
2017-10-28T04:40:06.835Z,945.93
2017-10-28T04:41:06.836Z,945.92
2017-10-28T04:42:06.833Z,945.82
2017-10-28T04:43:06.829Z,945.81
2017-10-28T04:44:06.826Z,945.80
2017-10-28T04:45:06.822Z,945.75
2017-10-28T04:46:06.827Z,945.71
2017-10-28T04:47:06.819Z,945.72
2017-10-28T04:48:06.815Z,945.72
2017-10-28T04:49:06.812Z,945.70
2017-10-28T04:50:06.810Z,945.67
2017-10-28T04:51:06.807Z,945.66
2017-10-28T04:52:06.804Z,945.57
2017-10-28T04:53:06.852Z,945.54
2017-10-28T04:54:06.800Z,945.55
2017-10-28T04:55:06.796Z,945.54
2017-10-28T04:56:06.793Z,945.50
2017-10-28T04:57:06.790Z,945.49
2017-10-28T04:58:06.788Z,945.53
2017-10-28T04:59:06.785Z,945.51
2017-10-28T05:00:06.781Z,945.53
2017-10-28T05:01:06.779Z,945.46
2017-10-28T05:02:06.778Z,945.44
2017-10-28T05:03:06.775Z,945.45
2017-10-28T05:04:06.770Z,945.40
2017-10-28T05:05:06.767Z,945.40
2017-10-28T05:06:06.766Z,945.32
2017-10-28T05:07:06.772Z,945.28
2017-10-28T05:08:06.809Z,945.24
2017-10-28T05:09:06.757Z,945.29
2017-10-28T05:10:06.756Z,945.34
2017-10-28T05:11:06.751Z,945.34
2017-10-28T05:12:06.752Z,945.35
2017-10-28T05:13:06.747Z,945.37
2017-10-28T05:14:06.744Z,945.31
2017-10-28T05:15:06.741Z,945.29
2017-10-28T05:16:06.738Z,945.28
2017-10-28T05:17:06.734Z,945.27
2017-10-28T05:18:06.731Z,945.30
2017-10-28T05:19:06.730Z,945.23
2017-10-28T05:20:06.725Z,945.22
2017-10-28T05:21:06.726Z,945.20
2017-10-28T05:22:06.720Z,945.20
2017-10-28T05:23:06.770Z,945.23
2017-10-28T05:24:06.714Z,945.26
2017-10-28T05:25:06.712Z,945.19
2017-10-28T05:26:06.709Z,945.20
2017-10-28T05:27:06.706Z,945.24
2017-10-28T05:28:06.702Z,945.24
2017-10-28T05:29:06.698Z,945.24
2017-10-28T05:30:06.695Z,945.19
2017-10-28T05:31:06.693Z,945.15
2017-10-28T05:32:06.689Z,945.17
2017-10-28T05:33:06.687Z,945.13
2017-10-28T05:34:06.683Z,945.08
2017-10-28T05:35:06.680Z,945.09
2017-10-28T05:36:06.676Z,945.07
2017-10-28T05:37:06.674Z,945.09
2017-10-28T05:38:06.671Z,945.00
2017-10-28T05:39:06.672Z,944.97
2017-10-28T05:40:06.663Z,944.94
2017-10-28T05:41:06.661Z,944.94
2017-10-28T05:42:06.708Z,944.95
2017-10-28T05:43:06.655Z,944.93
2017-10-28T05:44:06.651Z,944.96
2017-10-28T05:45:06.648Z,944.97
2017-10-28T05:46:06.645Z,945.00
2017-10-28T05:47:06.642Z,945.02
2017-10-28T05:48:06.638Z,945.07
2017-10-28T05:49:06.635Z,945.11
2017-10-28T05:50:06.681Z,945.09
2017-10-28T05:51:06.634Z,945.17
2017-10-28T05:52:06.625Z,945.17
2017-10-28T05:53:06.621Z,945.20
2017-10-28T05:54:06.619Z,945.23
2017-10-28T05:55:06.616Z,945.28
2017-10-28T05:56:06.612Z,945.31
2017-10-28T05:57:06.609Z,945.30
2017-10-28T05:58:06.605Z,945.28
2017-10-28T05:59:06.602Z,945.28
2017-10-28T06:00:06.598Z,945.29
2017-10-28T06:01:06.596Z,945.21
2017-10-28T06:02:06.594Z,945.21
2017-10-28T06:03:06.690Z,945.23
2017-10-28T06:04:06.584Z,945.17
2017-10-28T06:05:06.581Z,945.10
2017-10-28T06:06:06.580Z,945.14
2017-10-28T06:07:06.576Z,945.17
2017-10-28T06:08:06.571Z,945.18
2017-10-28T06:09:06.568Z,945.22
2017-10-28T06:10:06.565Z,945.22
2017-10-28T06:11:06.562Z,945.24
2017-10-28T06:12:06.557Z,945.23
2017-10-28T06:13:06.556Z,945.26
2017-10-28T06:14:06.551Z,945.20
2017-10-28T06:15:06.548Z,945.16
2017-10-28T06:16:06.545Z,945.21
2017-10-28T06:17:06.542Z,945.19
2017-10-28T06:18:06.539Z,945.18
2017-10-28T06:19:06.536Z,945.20
2017-10-28T06:20:06.533Z,945.18
2017-10-28T06:21:06.581Z,945.16
2017-10-28T06:22:06.526Z,945.26
2017-10-28T06:23:06.522Z,945.25
2017-10-28T06:24:06.522Z,945.24
2017-10-28T06:25:06.517Z,945.29
2017-10-28T06:26:06.513Z,945.26
2017-10-28T06:27:06.511Z,945.23
2017-10-28T06:28:06.663Z,945.17
2017-10-28T06:29:06.503Z,945.26
2017-10-28T06:30:06.500Z,945.26
2017-10-28T06:31:06.511Z,945.22
2017-10-28T06:32:06.493Z,945.23
2017-10-28T06:33:06.490Z,945.28
2017-10-28T06:34:06.488Z,945.27
2017-10-28T06:35:06.484Z,945.26
2017-10-28T06:36:06.479Z,945.30
2017-10-28T06:37:06.526Z,945.33
2017-10-28T06:38:06.474Z,945.32
2017-10-28T06:39:06.472Z,945.33
2017-10-28T06:40:06.469Z,945.37
2017-10-28T06:41:06.466Z,945.41
2017-10-28T06:42:06.463Z,945.45
2017-10-28T06:43:06.460Z,945.41
2017-10-28T06:44:06.463Z,945.46
2017-10-28T06:45:06.455Z,945.50
2017-10-28T06:46:06.451Z,945.55
2017-10-28T06:47:06.448Z,945.56
2017-10-28T06:48:06.445Z,945.62
2017-10-28T06:49:06.442Z,945.61
2017-10-28T06:50:06.439Z,945.67
2017-10-28T06:51:06.437Z,945.61
2017-10-28T06:52:06.434Z,945.60
2017-10-28T06:53:06.431Z,945.66
2017-10-28T06:54:06.428Z,945.64
2017-10-28T06:55:06.434Z,945.60
2017-10-28T06:56:06.422Z,945.64
2017-10-28T06:57:06.419Z,945.60
2017-10-28T06:58:06.416Z,945.60
2017-10-28T06:59:06.415Z,945.64
2017-10-28T07:00:06.410Z,945.63
2017-10-28T07:01:06.407Z,945.63
2017-10-28T07:02:06.405Z,945.59
2017-10-28T07:03:06.403Z,945.61
2017-10-28T07:04:06.399Z,945.64
2017-10-28T07:05:06.395Z,945.61
2017-10-28T07:06:06.393Z,945.59
2017-10-28T07:07:06.390Z,945.60
2017-10-28T07:08:06.387Z,945.61
2017-10-28T07:09:06.385Z,945.67
2017-10-28T07:10:06.381Z,945.65
2017-10-28T07:11:06.378Z,945.63
2017-10-28T07:12:06.375Z,945.64
2017-10-28T07:13:06.401Z,945.68
2017-10-28T07:14:06.371Z,945.64
2017-10-28T07:15:06.371Z,945.62
2017-10-28T07:16:06.363Z,945.64
2017-10-28T07:17:06.360Z,945.70
2017-10-28T07:18:06.358Z,945.66
2017-10-28T07:19:06.357Z,945.65
2017-10-28T07:20:06.354Z,945.59
2017-10-28T07:21:06.400Z,945.60
2017-10-28T07:22:06.347Z,945.59
2017-10-28T07:23:06.347Z,945.64
2017-10-28T07:24:06.343Z,945.58
2017-10-28T07:25:06.340Z,945.53
2017-10-28T07:26:06.336Z,945.50
2017-10-28T07:27:06.334Z,945.45
2017-10-28T07:28:06.331Z,945.43
2017-10-28T07:29:06.330Z,945.42
2017-10-28T07:30:06.326Z,945.34
2017-10-28T07:31:06.325Z,945.32
2017-10-28T07:32:06.322Z,945.31
2017-10-28T07:33:06.320Z,945.24
2017-10-28T07:34:06.319Z,945.17
2017-10-28T07:35:06.320Z,945.13
2017-10-28T07:36:06.315Z,945.09
2017-10-28T07:37:06.312Z,945.08
2017-10-28T07:38:06.315Z,945.11
2017-10-28T07:39:06.309Z,945.21
2017-10-28T07:40:06.306Z,945.27
2017-10-28T07:41:06.304Z,945.26
2017-10-28T07:42:06.302Z,945.28
2017-10-28T07:43:06.300Z,945.17
2017-10-28T07:44:06.298Z,945.21
2017-10-28T07:45:06.298Z,945.16
2017-10-28T07:46:06.297Z,945.18
2017-10-28T07:47:06.344Z,945.13
2017-10-28T07:48:06.293Z,945.07
2017-10-28T07:49:06.291Z,945.10
2017-10-28T07:50:06.339Z,945.13
2017-10-28T07:51:06.296Z,945.11
2017-10-28T07:52:06.285Z,945.12
2017-10-28T07:53:06.285Z,945.08
2017-10-28T07:54:06.283Z,945.08
2017-10-28T07:55:06.281Z,944.98
2017-10-28T07:56:06.279Z,944.99
2017-10-28T07:57:06.278Z,944.99
2017-10-28T07:58:06.277Z,944.94
2017-10-28T07:59:06.275Z,944.91
2017-10-28T08:00:06.272Z,944.93
2017-10-28T08:01:06.270Z,944.97
2017-10-28T08:02:06.269Z,944.96
2017-10-28T08:03:06.269Z,944.96
2017-10-28T08:04:06.265Z,944.91
2017-10-28T08:05:06.313Z,944.87
2017-10-28T08:06:06.262Z,944.85
2017-10-28T08:07:06.261Z,944.87
2017-10-28T08:08:06.257Z,944.90
2017-10-28T08:09:06.255Z,944.89
2017-10-28T08:10:06.255Z,944.82
2017-10-28T08:11:06.252Z,944.83
2017-10-28T08:12:06.253Z,944.82
2017-10-28T08:13:06.248Z,944.80
2017-10-28T08:14:06.250Z,944.81
2017-10-28T08:15:08.297Z,944.81
2017-10-28T08:16:06.243Z,944.87
2017-10-28T08:17:06.290Z,944.89
2017-10-28T08:18:06.239Z,944.93
2017-10-28T08:19:06.237Z,944.97
2017-10-28T08:20:06.235Z,945.02
2017-10-28T08:21:06.232Z,945.05
2017-10-28T08:22:06.232Z,944.98
2017-10-28T08:23:06.231Z,945.05
2017-10-28T08:24:06.228Z,945.08
2017-10-28T08:25:06.225Z,945.09
2017-10-28T08:26:06.225Z,945.09
2017-10-28T08:27:06.226Z,945.04
2017-10-28T08:28:06.225Z,945.05
2017-10-28T08:29:06.221Z,945.00
2017-10-28T08:30:06.223Z,945.06
2017-10-28T08:31:06.220Z,945.10
2017-10-28T08:32:06.220Z,945.08
2017-10-28T08:33:06.220Z,945.11
2017-10-28T08:34:06.268Z,945.06
2017-10-28T08:35:06.219Z,945.05
2017-10-28T08:36:06.218Z,945.09
2017-10-28T08:37:06.218Z,945.07
2017-10-28T08:38:06.225Z,945.05
2017-10-28T08:39:06.222Z,945.09
2017-10-28T08:40:06.218Z,945.11
2017-10-28T08:41:06.219Z,945.04
2017-10-28T08:42:06.220Z,945.05
2017-10-28T08:43:06.220Z,945.02
2017-10-28T08:44:06.220Z,945.01
2017-10-28T08:45:06.219Z,944.97
2017-10-28T08:46:06.220Z,944.93
2017-10-28T08:47:06.221Z,944.92
2017-10-28T08:48:06.219Z,944.96
2017-10-28T08:49:06.219Z,945.03
2017-10-28T08:50:06.222Z,945.01
2017-10-28T08:51:06.221Z,945.00
2017-10-28T08:52:06.220Z,945.07
2017-10-28T08:53:06.220Z,945.04
2017-10-28T08:54:06.223Z,945.08
2017-10-28T08:55:06.223Z,945.09
2017-10-28T08:56:06.222Z,945.08
2017-10-28T08:57:06.223Z,945.04
2017-10-28T08:58:06.224Z,945.04
2017-10-28T08:59:06.226Z,945.04
2017-10-28T09:00:06.227Z,945.04
2017-10-28T09:01:06.230Z,945.04
2017-10-28T09:02:06.232Z,944.97
2017-10-28T09:03:06.284Z,945.00
2017-10-28T09:04:06.237Z,945.04
2017-10-28T09:05:06.240Z,945.06
2017-10-28T09:06:06.242Z,945.11
2017-10-28T09:07:06.247Z,945.04
2017-10-28T09:08:06.249Z,945.02
2017-10-28T09:09:06.254Z,945.12
2017-10-28T09:10:06.308Z,945.11
2017-10-28T09:11:06.262Z,945.01
2017-10-28T09:12:06.266Z,945.09
2017-10-28T09:13:06.271Z,944.97
2017-10-28T09:14:06.275Z,944.92
2017-10-28T09:15:06.279Z,944.86
2017-10-28T09:16:06.281Z,944.83
2017-10-28T09:17:06.285Z,944.75
2017-10-28T09:18:06.292Z,944.67
2017-10-28T09:19:06.332Z,944.57
2017-10-28T09:20:06.297Z,944.47
2017-10-28T09:21:06.300Z,944.39
2017-10-28T09:22:06.302Z,944.30
2017-10-28T09:23:06.306Z,944.32
2017-10-28T09:24:06.307Z,944.27
2017-10-28T09:25:06.311Z,944.23
2017-10-28T09:26:06.323Z,944.27
2017-10-28T09:27:06.316Z,944.22
2017-10-28T09:28:06.317Z,944.29
2017-10-28T09:29:06.319Z,944.27
2017-10-28T09:30:06.322Z,944.25
2017-10-28T09:31:06.324Z,944.23
2017-10-28T09:32:06.325Z,944.23
2017-10-28T09:33:06.326Z,944.13
2017-10-28T09:34:06.328Z,944.24
2017-10-28T09:35:06.329Z,944.20
2017-10-28T09:36:06.334Z,944.17
2017-10-28T09:37:06.332Z,944.27
2017-10-28T09:38:06.382Z,944.29
2017-10-28T09:39:06.334Z,944.27
2017-10-28T09:40:06.334Z,944.20
2017-10-28T09:41:06.336Z,944.19
2017-10-28T09:42:06.339Z,944.13
2017-10-28T09:43:06.337Z,944.20
2017-10-28T09:44:06.337Z,944.21
2017-10-28T09:45:06.339Z,944.21
2017-10-28T09:46:06.339Z,944.23
2017-10-28T09:47:06.340Z,944.22
2017-10-28T09:48:06.339Z,944.24
2017-10-28T09:49:06.343Z,944.30
2017-10-28T09:50:06.341Z,944.28
2017-10-28T09:51:06.341Z,944.28
2017-10-28T09:52:06.342Z,944.27
2017-10-28T09:53:06.342Z,944.29
2017-10-28T09:54:06.347Z,944.32
2017-10-28T09:55:06.344Z,944.37
2017-10-28T09:56:06.343Z,944.35
2017-10-28T09:57:06.344Z,944.47
2017-10-28T09:58:06.345Z,944.49
2017-10-28T09:59:06.345Z,944.53
2017-10-28T10:00:06.345Z,944.58
2017-10-28T10:01:06.346Z,944.56
2017-10-28T10:02:06.347Z,944.58
2017-10-28T10:03:06.348Z,944.57
2017-10-28T10:04:06.353Z,944.48
2017-10-28T10:05:06.349Z,944.46
2017-10-28T10:06:06.351Z,944.48
2017-10-28T10:07:06.350Z,944.43
2017-10-28T10:08:06.351Z,944.39
2017-10-28T10:09:06.351Z,944.39
2017-10-28T10:10:06.355Z,944.33
2017-10-28T10:11:06.355Z,944.35
2017-10-28T10:12:06.355Z,944.36
2017-10-28T10:13:06.358Z,944.40
2017-10-28T10:14:06.359Z,944.40
2017-10-28T10:15:06.359Z,944.28
2017-10-28T10:16:06.360Z,944.35
2017-10-28T10:17:06.362Z,944.29
2017-10-28T10:18:06.361Z,944.29
2017-10-28T10:19:06.363Z,944.17
2017-10-28T10:20:06.363Z,944.03
2017-10-28T10:21:06.365Z,944.13
2017-10-28T10:22:06.369Z,944.06
2017-10-28T10:23:06.367Z,943.96
2017-10-28T10:24:06.367Z,944.05
2017-10-28T10:25:06.368Z,944.03
2017-10-28T10:26:06.370Z,944.01
2017-10-28T10:27:06.370Z,944.05
2017-10-28T10:28:06.369Z,943.87
2017-10-28T10:29:06.372Z,943.90
2017-10-28T10:30:06.372Z,943.92
2017-10-28T10:31:06.374Z,943.81
2017-10-28T10:32:06.374Z,943.71
2017-10-28T10:33:06.375Z,943.81
2017-10-28T10:34:06.377Z,943.67
2017-10-28T10:35:06.428Z,943.59
2017-10-28T10:36:06.378Z,943.56
2017-10-28T10:37:06.378Z,943.52
2017-10-28T10:38:06.381Z,943.56
2017-10-28T10:39:06.381Z,943.56
2017-10-28T10:40:06.381Z,943.51
2017-10-28T10:41:06.391Z,943.41
2017-10-28T10:42:06.384Z,943.38
2017-10-28T10:43:06.385Z,943.30
2017-10-28T10:44:06.385Z,943.25
2017-10-28T10:45:06.388Z,943.25
2017-10-28T10:46:06.438Z,943.23
2017-10-28T10:47:06.390Z,943.27
2017-10-28T10:48:06.439Z,943.22
2017-10-28T10:49:06.391Z,943.19
2017-10-28T10:50:06.393Z,943.16
2017-10-28T10:51:06.394Z,943.11
2017-10-28T10:52:06.395Z,943.19
2017-10-28T10:53:06.400Z,943.08
2017-10-28T10:54:06.398Z,943.02
2017-10-28T10:55:06.399Z,943.05
2017-10-28T10:56:06.399Z,943.02
2017-10-28T10:57:06.411Z,943.08
2017-10-28T10:58:06.402Z,943.07
2017-10-28T10:59:06.405Z,942.91
2017-10-28T11:00:06.404Z,942.99
2017-10-28T11:01:06.406Z,942.95
2017-10-28T11:02:06.411Z,943.03
2017-10-28T11:03:06.408Z,942.98
2017-10-28T11:04:06.410Z,942.96
2017-10-28T11:05:06.410Z,942.96
2017-10-28T11:06:06.461Z,942.93
2017-10-28T11:07:06.412Z,942.92
2017-10-28T11:08:06.412Z,942.88
2017-10-28T11:09:06.413Z,942.87
2017-10-28T11:10:06.414Z,942.78
2017-10-28T11:11:06.419Z,942.85
2017-10-28T11:12:06.415Z,942.88
2017-10-28T11:13:06.417Z,942.80
2017-10-28T11:14:06.417Z,942.85
2017-10-28T11:15:06.418Z,942.79
2017-10-28T11:16:06.417Z,942.85
2017-10-28T11:17:06.417Z,942.82
2017-10-28T11:18:06.419Z,942.75
2017-10-28T11:19:06.421Z,942.74
2017-10-28T11:20:06.420Z,942.74
2017-10-28T11:21:06.421Z,942.74
2017-10-28T11:22:06.425Z,942.76
2017-10-28T11:23:06.423Z,942.69
2017-10-28T11:24:06.424Z,942.70
2017-10-28T11:25:06.425Z,942.64
2017-10-28T11:26:06.427Z,942.59
2017-10-28T11:27:06.428Z,942.58
2017-10-28T11:28:06.430Z,942.54
2017-10-28T11:29:06.481Z,942.58
2017-10-28T11:30:06.433Z,942.44
2017-10-28T11:31:06.435Z,942.61
2017-10-28T11:32:06.437Z,942.52
2017-10-28T11:33:06.439Z,942.53
2017-10-28T11:34:06.443Z,942.49
2017-10-28T11:35:06.447Z,942.42
2017-10-28T11:36:06.448Z,942.40
2017-10-28T11:37:06.450Z,942.39
2017-10-28T11:38:06.453Z,942.39
2017-10-28T11:39:06.507Z,942.36
2017-10-28T11:40:06.460Z,942.35
2017-10-28T11:41:06.462Z,942.31
2017-10-28T11:42:06.466Z,942.36
2017-10-28T11:43:06.520Z,942.31
2017-10-28T11:44:06.471Z,942.20
2017-10-28T11:45:06.475Z,942.19
2017-10-28T11:46:06.478Z,942.21
2017-10-28T11:47:06.481Z,942.17
2017-10-28T11:48:06.483Z,942.10
2017-10-28T11:49:06.487Z,942.17
2017-10-28T11:50:06.489Z,942.18
2017-10-28T11:51:06.493Z,942.14
2017-10-28T11:52:06.496Z,942.11
2017-10-28T11:53:06.500Z,942.12
2017-10-28T11:54:06.502Z,942.20
2017-10-28T11:55:06.555Z,942.18
2017-10-28T11:56:06.508Z,942.22
2017-10-28T11:57:06.511Z,942.21
2017-10-28T11:58:06.522Z,942.20
2017-10-28T11:59:06.519Z,942.22
2017-10-28T12:00:06.520Z,942.10
2017-10-28T12:01:06.525Z,942.06
2017-10-28T12:02:06.529Z,942.04
2017-10-28T12:03:06.531Z,942.02
2017-10-28T12:04:06.533Z,941.96
2017-10-28T12:05:06.542Z,942.00
2017-10-28T12:06:06.539Z,941.97
2017-10-28T12:07:06.542Z,941.92
2017-10-28T12:08:06.544Z,941.97
2017-10-28T12:09:06.549Z,941.95
2017-10-28T12:10:06.550Z,941.91
2017-10-28T12:11:06.554Z,941.90
2017-10-28T12:12:06.554Z,941.95
2017-10-28T12:13:06.558Z,941.95
2017-10-28T12:14:06.559Z,941.91
2017-10-28T12:15:06.563Z,941.92
2017-10-28T12:16:06.563Z,941.98
2017-10-28T12:17:06.566Z,942.03
2017-10-28T12:18:06.568Z,942.01
2017-10-28T12:19:06.569Z,942.04
2017-10-28T12:20:06.571Z,942.09
2017-10-28T12:21:06.572Z,942.08
2017-10-28T12:22:06.574Z,942.02
2017-10-28T12:23:06.581Z,941.98
2017-10-28T12:24:06.578Z,942.12
2017-10-28T12:25:06.585Z,942.04
2017-10-28T12:26:06.581Z,942.07
2017-10-28T12:27:06.582Z,942.06
2017-10-28T12:28:06.586Z,942.07